Time;durP1;ratioP1;P1;durP2;ratioP2;P2;SDS_P1;SDS_P2;PMS_P1;PMS_P2;Temp;Humidity;BMP_temperature;BMP_pressure;BME280_temperature;BME280_humidity;BME280_pressure;Samples;Min_cycle;Max_cycle;Signal;HPM_P1;HPM_P2
2022/03/31 00:00:50;;;;;;;33.20;14.70;;;8.40;99.90;;;;;;5099837;28;20498;-68
2022/03/31 00:03:19;;;;;;;37.40;15.70;;;8.40;99.90;;;;;;5091538;28;20496;-68
2022/03/31 00:05:48;;;;;;;32.92;16.40;;;8.40;99.90;;;;;;5090811;28;20063;-69
2022/03/31 00:08:18;;;;;;;33.20;16.65;;;8.40;99.90;;;;;;5091612;28;20044;-69
2022/03/31 00:10:47;;;;;;;30.23;16.00;;;8.40;99.90;;;;;;5099900;28;20404;-69
2022/03/31 00:13:16;;;;;;;28.55;14.90;;;8.40;99.90;;;;;;5091310;28;20062;-69
2022/03/31 00:15:45;;;;;;;28.67;15.63;;;8.40;99.90;;;;;;5091473;28;20094;-69
2022/03/31 00:18:14;;;;;;;31.27;16.38;;;8.40;99.90;;;;;;5094523;28;20035;-68
2022/03/31 00:20:41;;;;;;;30.63;16.48;;;8.40;99.90;;;;;;5095855;28;20055;-69
2022/03/31 00:23:09;;;;;;;27.38;15.10;;;8.40;99.90;;;;;;5091279;28;20419;-69
2022/03/31 00:25:36;;;;;;;36.35;16.23;;;8.40;99.90;;;;;;5091386;28;20047;-69
2022/03/31 00:28:04;;;;;;;35.92;16.92;;;8.30;99.90;;;;;;5099807;28;20048;-69
2022/03/31 00:30:32;;;;;;;31.27;16.67;;;8.30;99.90;;;;;;5090996;28;20067;-69
2022/03/31 00:33:00;;;;;;;29.33;16.38;;;8.30;99.90;;;;;;5091204;28;20087;-68
2022/03/31 00:35:28;;;;;;;32.22;16.42;;;8.20;99.90;;;;;;5096716;28;20039;-68
2022/03/31 00:37:55;;;;;;;31.92;16.15;;;8.20;99.90;;;;;;5093945;28;20055;-68
2022/03/31 00:40:23;;;;;;;27.17;16.20;;;8.20;99.90;;;;;;5092694;28;20040;-69
2022/03/31 00:42:53;;;;;;;33.53;16.73;;;8.20;99.90;;;;;;5094546;28;20070;-69
2022/03/31 00:45:23;;;;;;;31.05;16.73;;;8.20;99.90;;;;;;5093140;28;20036;-68
2022/03/31 00:47:52;;;;;;;31.67;16.40;;;8.20;99.90;;;;;;5095466;28;20055;-68
2022/03/31 00:50:20;;;;;;;30.15;15.82;;;8.20;99.90;;;;;;5095236;28;20051;-68
2022/03/31 00:52:46;;;;;;;31.67;15.68;;;8.10;99.90;;;;;;5094703;28;20564;-69
2022/03/31 00:55:15;;;;;;;32.25;16.20;;;8.10;99.90;;;;;;5098742;28;20535;-69
2022/03/31 00:57:43;;;;;;;34.30;17.45;;;8.00;99.90;;;;;;5115612;28;20048;-69
2022/03/31 01:00:14;;;;;;;35.20;17.40;;;8.00;99.90;;;;;;5115431;28;20035;-68
2022/03/31 01:02:43;;;;;;;30.15;16.63;;;7.90;99.90;;;;;;5106385;28;20033;-69
2022/03/31 01:05:14;;;;;;;32.78;16.10;;;7.90;99.90;;;;;;5103411;28;20036;-69
2022/03/31 01:07:42;;;;;;;29.58;16.65;;;7.90;99.90;;;;;;5095002;28;20142;-69
2022/03/31 01:10:11;;;;;;;28.63;15.38;;;8.00;99.90;;;;;;5097279;28;20086;-69
2022/03/31 01:12:38;;;;;;;31.73;17.02;;;8.00;99.90;;;;;;5099571;28;20111;-69
2022/03/31 01:15:15;;;;;;;31.35;16.02;;;7.90;99.90;;;;;;5094967;28;20097;-69
2022/03/31 01:17:44;;;;;;;30.38;16.23;;;7.90;99.90;;;;;;5094825;28;20072;-69
2022/03/31 01:20:17;;;;;;;32.08;16.25;;;7.90;99.90;;;;;;5097682;28;20035;-69
2022/03/31 01:22:45;;;;;;;32.28;17.02;;;7.80;99.90;;;;;;5098406;28;20070;-68
2022/03/31 01:25:13;;;;;;;33.47;17.17;;;8.20;99.90;;;;;;5094614;28;20048;-68
2022/03/31 01:27:43;;;;;;;38.35;17.58;;;7.70;99.90;;;;;;5101684;28;20089;-69
2022/03/31 01:30:13;;;;;;;30.30;16.20;;;7.70;99.90;;;;;;5094796;28;20051;-68
2022/03/31 01:32:41;;;;;;;35.53;17.30;;;7.80;99.90;;;;;;5117220;22;20043;-77
2022/03/31 01:35:09;;;;;;;34.70;16.73;;;7.80;99.90;;;;;;5110959;28;20507;-76
2022/03/31 01:37:36;;;;;;;38.97;16.55;;;7.90;99.90;;;;;;5093641;28;20047;-75
2022/03/31 01:40:04;;;;;;;;;;;7.90;99.90;;;;;;5097084;28;20054;-75
2022/03/31 01:42:31;;;;;;;34.80;17.33;;;7.90;99.90;;;;;;5105686;28;20321;-77
2022/03/31 01:44:58;;;;;;;35.30;16.23;;;8.00;99.90;;;;;;5114713;28;20320;-77
2022/03/31 01:47:25;;;;;;;36.33;16.08;;;7.90;99.90;;;;;;5114463;28;20385;-77
2022/03/31 01:49:53;;;;;;;30.33;14.93;;;7.90;99.90;;;;;;5106590;28;20051;-77
2022/03/31 01:52:22;;;;;;;26.70;15.05;;;7.90;99.90;;;;;;5106035;28;20495;-76
2022/03/31 01:54:49;;;;;;;40.03;16.35;;;7.90;99.90;;;;;;5114620;28;20433;-76
2022/03/31 01:57:17;;;;;;;28.85;14.80;;;7.90;99.90;;;;;;5114559;28;20113;-76
2022/03/31 01:59:44;;;;;;;30.23;15.70;;;7.80;99.90;;;;;;5102061;28;20047;-77
2022/03/31 02:02:13;;;;;;;34.53;15.13;;;7.80;99.90;;;;;;5113305;28;20044;-77
2022/03/31 02:04:41;;;;;;;27.00;14.77;;;7.80;99.90;;;;;;5114337;28;20039;-76
2022/03/31 02:07:08;;;;;;;;;;;7.80;99.90;;;;;;5100064;28;20077;-76
2022/03/31 02:09:36;;;;;;;27.83;14.18;;;7.80;99.90;;;;;;5108935;28;20035;-76
2022/03/31 02:12:03;;;;;;;;;;;7.70;99.90;;;;;;5114181;28;20063;-77
2022/03/31 02:14:30;;;;;;;27.42;15.18;;;7.70;99.90;;;;;;5113785;28;19977;-76
2022/03/31 02:16:58;;;;;;;31.00;15.23;;;7.70;99.90;;;;;;5097803;28;20055;-76
2022/03/31 02:19:25;;;;;;;29.10;15.68;;;7.60;99.90;;;;;;5107164;28;20047;-77
2022/03/31 02:21:52;;;;;;;34.83;15.85;;;7.60;99.90;;;;;;5113663;28;20069;-77
2022/03/31 02:24:19;;;;;;;34.85;16.92;;;7.60;99.90;;;;;;5114018;28;20047;-76
2022/03/31 02:26:48;;;;;;;32.15;15.75;;;7.60;99.90;;;;;;5098176;28;20122;-77
2022/03/31 02:29:15;;;;;;;30.38;16.58;;;7.60;99.90;;;;;;5079488;28;20051;-77
2022/03/31 02:31:43;;;;;;;31.58;16.77;;;7.60;99.90;;;;;;5113096;28;20047;-76
2022/03/31 02:34:10;;;;;;;38.33;16.42;;;7.60;99.90;;;;;;5106033;28;20506;-76
2022/03/31 02:36:37;;;;;;;31.88;17.08;;;7.60;99.90;;;;;;5108617;28;20039;-76
2022/03/31 02:39:04;;;;;;;31.98;16.15;;;7.60;99.90;;;;;;5113722;28;20039;-76
2022/03/31 02:41:31;;;;;;;34.38;17.30;;;7.60;99.90;;;;;;5107766;28;20047;-77
2022/03/31 02:43:58;;;;;;;30.00;16.33;;;7.70;99.90;;;;;;5104935;28;20050;-76
2022/03/31 02:46:28;;;;;;;30.98;16.70;;;7.60;99.90;;;;;;5113551;28;20074;-76
2022/03/31 02:48:56;;;;;;;33.28;17.00;;;7.60;99.90;;;;;;5095123;28;20487;-76
2022/03/31 02:51:23;;;;;;;34.53;16.92;;;7.60;99.90;;;;;;5096256;28;20032;-77
2022/03/31 02:56:38;;;;;;;33.90;17.77;;;7.70;99.90;;;;;;5113271;28;20046;-77
2022/03/31 02:59:07;;;;;;;31.55;17.30;;;7.70;99.90;;;;;;5097646;28;20041;-76
2022/03/31 03:01:34;;;;;;;36.75;19.23;;;7.60;99.90;;;;;;5104114;28;20445;-76
2022/03/31 03:04:01;;;;;;;32.20;17.02;;;7.60;99.90;;;;;;5112320;28;20044;-77
2022/03/31 03:06:29;;;;;;;36.00;18.58;;;7.60;99.90;;;;;;5107012;28;20508;-77
2022/03/31 03:08:56;;;;;;;34.33;17.55;;;7.60;99.90;;;;;;5099548;28;20047;-76
2022/03/31 03:11:23;;;;;;;35.53;17.40;;;7.60;99.90;;;;;;5112356;28;20044;-76
2022/03/31 03:13:50;;;;;;;33.22;18.20;;;7.70;99.90;;;;;;5113057;28;20046;-76
2022/03/31 03:16:17;;;;;;;36.75;17.08;;;7.70;99.90;;;;;;5107037;28;20068;-76
2022/03/31 03:18:44;;;;;;;33.75;18.38;;;7.70;99.90;;;;;;5108658;28;20467;-77
2022/03/31 03:21:11;;;;;;;33.17;17.65;;;7.70;99.90;;;;;;5112146;28;20050;-77
2022/03/31 03:23:39;;;;;;;32.03;17.65;;;7.70;99.90;;;;;;5112788;28;20043;-76
2022/03/31 03:26:07;;;;;;;34.85;18.88;;;7.70;99.90;;;;;;5100942;28;20039;-76
2022/03/31 03:28:38;;;;;;;34.35;19.02;;;7.70;99.90;;;;;;5107224;28;20039;-76
2022/03/31 03:31:06;;;;;;;35.30;18.60;;;7.70;99.90;;;;;;5100375;28;20555;-76
2022/03/31 03:33:34;;;;;;;41.00;20.70;;;7.70;99.90;;;;;;5083991;28;20037;-76
2022/03/31 03:36:04;;;;;;;35.88;19.48;;;7.80;99.90;;;;;;5083610;28;20094;-76
2022/03/31 03:38:32;;;;;;;37.70;19.23;;;7.80;99.90;;;;;;5080568;28;20520;-77
2022/03/31 03:40:59;;;;;;;35.28;19.08;;;7.80;99.90;;;;;;5086283;28;20571;-77
2022/03/31 03:43:28;;;;;;;35.33;19.05;;;7.80;99.90;;;;;;5102927;28;20124;-76
2022/03/31 03:45:55;;;;;;;33.72;18.27;;;7.80;99.90;;;;;;5082961;28;20068;-76
2022/03/31 03:48:22;;;;;;;44.03;20.30;;;7.90;99.90;;;;;;5071671;28;20045;-77
2022/03/31 03:50:50;;;;;;;37.63;19.00;;;7.80;99.90;;;;;;5097797;28;20039;-76
2022/03/31 03:53:17;;;;;;;41.05;20.83;;;7.90;99.90;;;;;;5112091;28;20044;-76
2022/03/31 03:55:44;;;;;;;37.35;19.00;;;7.90;99.90;;;;;;5096980;28;20036;-77
2022/03/31 03:58:11;;;;;;;40.10;19.83;;;7.90;99.90;;;;;;5094123;28;20096;-76
2022/03/31 04:00:39;;;;;;;38.22;20.85;;;7.90;99.90;;;;;;5103660;28;20089;-76
2022/03/31 04:03:05;;;;;;;38.78;20.08;;;7.90;99.90;;;;;;5111656;28;20040;-76
2022/03/31 04:05:33;;;;;;;34.08;19.30;;;7.90;99.90;;;;;;5112356;28;20122;-76
2022/03/31 04:08:00;;;;;;;37.65;20.13;;;7.90;99.90;;;;;;5088466;28;20048;-77
2022/03/31 04:10:27;;;;;;;38.17;19.38;;;7.80;99.90;;;;;;5089416;28;20490;-77
2022/03/31 04:12:54;;;;;;;36.35;19.58;;;7.80;99.90;;;;;;5091220;28;20036;-76
2022/03/31 04:15:21;;;;;;;37.30;20.45;;;7.90;99.90;;;;;;5091105;28;20134;-77
2022/03/31 04:17:48;;;;;;;37.42;20.50;;;7.90;99.90;;;;;;5099630;28;20488;-76
2022/03/31 04:20:16;;;;;;;39.80;20.05;;;7.90;99.90;;;;;;5088128;28;20036;-76
2022/03/31 04:22:43;;;;;;;41.10;20.17;;;7.90;99.90;;;;;;5080109;28;20049;-76
2022/03/31 04:25:11;;;;;;;37.72;19.77;;;7.90;99.90;;;;;;5098998;28;20177;-77
2022/03/31 04:27:39;;;;;;;38.00;19.83;;;7.90;99.90;;;;;;5106686;28;20043;-76
2022/03/31 04:30:09;;;;;;;40.47;19.63;;;7.90;99.90;;;;;;5111804;28;20043;-78
2022/03/31 04:32:37;;;;;;;41.50;20.05;;;7.90;99.90;;;;;;5099508;28;20094;-76
2022/03/31 04:35:06;;;;;;;43.10;21.98;;;7.90;99.90;;;;;;5100772;28;20549;-76
2022/03/31 04:37:34;;;;;;;36.63;19.88;;;7.90;99.90;;;;;;5111886;28;20043;-76
2022/03/31 04:40:03;;;;;;;37.80;20.92;;;7.90;99.90;;;;;;5111836;28;20427;-76
2022/03/31 04:42:30;;;;;;;37.83;19.80;;;7.90;99.90;;;;;;5102811;28;20050;-76
2022/03/31 04:44:57;;;;;;;32.95;16.77;;;7.90;99.90;;;;;;5103215;28;20044;-76
2022/03/31 04:47:25;;;;;;;31.27;15.82;;;7.80;99.90;;;;;;5111659;28;20048;-76
2022/03/31 04:49:52;;;;;;;28.48;15.90;;;7.70;99.90;;;;;;5107523;28;20051;-76
2022/03/31 04:52:19;;;;;;;32.03;16.02;;;7.70;99.90;;;;;;5102691;28;20039;-76
2022/03/31 04:54:46;;;;;;;29.42;16.58;;;7.70;99.90;;;;;;5097034;28;20032;-76
2022/03/31 04:57:15;;;;;;;;;;;7.70;99.90;;;;;;5081437;28;20459;-74
2022/03/31 04:59:42;;;;;;;32.85;16.70;;;7.60;99.90;;;;;;5084286;28;19924;-76
2022/03/31 05:02:11;;;;;;;37.97;16.73;;;7.60;99.90;;;;;;5083435;28;20401;-76
2022/03/31 05:04:38;;;;;;;34.30;16.10;;;7.60;99.90;;;;;;5079508;28;20039;-76
2022/03/31 05:07:05;;;;;;;;;;;7.50;99.90;;;;;;5082765;28;20071;-76
2022/03/31 05:09:32;;;;;;;33.53;17.48;;;7.50;99.90;;;;;;5085451;28;19931;-77
2022/03/31 05:11:59;;;;;;;39.97;18.67;;;7.50;99.90;;;;;;5080870;28;20496;-76
2022/03/31 05:14:26;;;;;;;38.15;18.38;;;7.60;99.90;;;;;;5072642;28;20044;-76
2022/03/31 05:16:54;;;;;;;34.15;16.88;;;7.60;99.90;;;;;;5100081;28;20059;-77
2022/03/31 05:19:21;;;;;;;39.22;18.58;;;7.60;99.90;;;;;;5111439;28;20036;-75
2022/03/31 05:21:48;;;;;;;36.95;18.27;;;7.60;99.90;;;;;;5110726;28;20093;-80
2022/03/31 05:24:15;;;;;;;42.30;18.33;;;7.70;99.90;;;;;;5091382;28;20487;-77
2022/03/31 05:26:42;;;;;;;41.15;21.52;;;7.70;99.90;;;;;;5108595;28;20043;-77
2022/03/31 05:29:10;;;;;;;47.60;21.58;;;7.70;99.90;;;;;;5115198;28;20039;-76
2022/03/31 05:31:37;;;;;;;46.70;21.85;;;7.70;99.90;;;;;;5098394;28;20403;-76
2022/03/31 05:34:04;;;;;;;42.22;22.50;;;7.80;99.90;;;;;;5106280;28;20047;-77
2022/03/31 05:36:31;;;;;;;42.35;21.20;;;7.80;99.90;;;;;;5114887;28;20101;-76
2022/03/31 05:38:58;;;;;;;43.40;22.50;;;7.80;99.90;;;;;;5112996;28;20407;-77
2022/03/31 05:41:25;;;;;;;47.25;20.73;;;7.90;99.90;;;;;;5102255;28;20551;-76
2022/03/31 05:43:52;;;;;;;37.58;21.92;;;7.90;99.90;;;;;;5111676;28;20031;-77
2022/03/31 05:46:23;;;;;;;38.92;20.83;;;7.90;99.90;;;;;;5096517;28;20040;-77
2022/03/31 05:48:51;;;;;;;43.65;20.98;;;7.90;99.90;;;;;;5102964;28;20059;-77
2022/03/31 05:51:18;;;;;;;41.13;21.92;;;7.90;99.90;;;;;;5091149;28;20040;-77
2022/03/31 05:53:45;;;;;;;42.30;21.73;;;7.90;99.90;;;;;;5082911;28;20040;-77
2022/03/31 05:56:12;;;;;;;44.50;23.15;;;7.90;99.90;;;;;;5062419;28;20063;-76
2022/03/31 05:58:39;;;;;;;48.03;22.75;;;7.90;99.90;;;;;;5056009;28;20424;-77
2022/03/31 06:01:06;;;;;;;;;;;7.90;99.90;;;;;;5085979;28;20393;-78
2022/03/31 06:03:33;;;;;;;47.95;23.00;;;7.90;99.90;;;;;;5114444;28;19919;-77
2022/03/31 06:06:00;;;;;;;48.45;22.92;;;7.90;99.90;;;;;;5113843;28;20082;-77
2022/03/31 06:08:28;;;;;;;60.10;23.77;;;7.90;99.90;;;;;;5100273;28;20051;-77
2022/03/31 06:10:55;;;;;;;46.08;22.83;;;7.90;99.90;;;;;;5111386;28;20044;-77
2022/03/31 06:13:22;;;;;;;;;;;7.90;99.90;;;;;;5114350;28;20047;-77
2022/03/31 06:15:49;;;;;;;48.25;22.00;;;7.90;99.90;;;;;;5110415;28;19920;-76
2022/03/31 06:18:16;;;;;;;49.67;22.98;;;7.90;99.90;;;;;;5105938;28;20093;-77
2022/03/31 06:20:43;;;;;;;44.40;23.30;;;8.00;99.90;;;;;;5113990;28;20118;-77
2022/03/31 06:23:10;;;;;;;43.85;21.98;;;8.00;99.90;;;;;;5113619;28;20043;-77
2022/03/31 06:25:37;;;;;;;43.13;22.67;;;8.10;99.90;;;;;;5087890;28;20487;-77
2022/03/31 06:28:05;;;;;;;41.70;21.65;;;8.10;99.90;;;;;;5087371;28;20040;-77
2022/03/31 06:30:32;;;;;;;43.85;21.73;;;8.10;99.90;;;;;;5113919;28;20043;-77
2022/03/31 06:33:00;;;;;;;43.17;21.95;;;8.10;99.90;;;;;;5109896;28;20036;-77
2022/03/31 06:35:27;;;;;;;47.03;24.13;;;8.10;99.90;;;;;;5087242;28;20035;-76
2022/03/31 06:37:54;;;;;;;43.35;21.25;;;8.00;99.90;;;;;;5113592;28;20035;-77
2022/03/31 06:40:21;;;;;;;48.85;24.63;;;8.00;99.90;;;;;;5113794;28;20396;-76
2022/03/31 06:42:50;;;;;;;43.70;22.48;;;8.00;99.90;;;;;;5100891;28;20048;-77
2022/03/31 06:45:18;;;;;;;41.15;22.38;;;8.00;99.90;;;;;;5113652;28;20075;-76
2022/03/31 06:47:56;;;;;;;44.75;23.13;;;8.00;99.90;;;;;;5113430;28;20051;-77
2022/03/31 06:50:30;;;;;;;44.90;23.63;;;8.00;99.90;;;;;;5111458;28;20549;-77
2022/03/31 06:52:58;;;;;;;45.15;22.95;;;8.00;99.90;;;;;;5099728;28;20510;-77
2022/03/31 06:55:26;;;;;;;45.90;22.40;;;8.00;99.90;;;;;;5113374;28;20097;-77
2022/03/31 06:57:54;;;;;;;46.42;23.15;;;8.00;99.90;;;;;;5112985;28;20035;-77
2022/03/31 07:00:20;;;;;;;45.75;23.58;;;8.00;99.90;;;;;;5100849;28;20153;-77
2022/03/31 07:02:48;;;;;;;49.53;24.25;;;8.00;99.90;;;;;;5109183;28;20128;-77
2022/03/31 07:05:15;;;;;;;52.47;26.42;;;8.00;99.90;;;;;;5113175;28;20083;-76
2022/03/31 07:07:43;;;;;;;45.08;23.00;;;8.00;99.90;;;;;;5106403;28;20047;-77
2022/03/31 07:10:10;;;;;;;52.83;25.75;;;8.00;99.90;;;;;;5104321;28;20040;-77
2022/03/31 07:12:39;;;;;;;42.63;22.73;;;8.10;99.90;;;;;;5112392;28;20043;-76
2022/03/31 07:15:08;;;;;;;46.95;23.67;;;8.10;99.90;;;;;;5111190;28;20029;-78
2022/03/31 07:17:35;;;;;;;44.97;23.52;;;8.10;99.90;;;;;;5104385;28;20047;-77
2022/03/31 07:20:04;;;;;;;47.00;24.73;;;8.10;99.90;;;;;;5112741;28;20077;-77
2022/03/31 07:22:32;;;;;;;46.65;23.67;;;8.10;99.90;;;;;;5112504;28;20505;-76
2022/03/31 07:25:01;;;;;;;44.22;23.50;;;8.10;99.90;;;;;;5100370;28;20049;-76
2022/03/31 07:27:28;;;;;;;49.80;25.60;;;8.10;99.90;;;;;;5104221;28;20035;-76
2022/03/31 07:29:55;;;;;;;44.15;23.27;;;8.10;99.90;;;;;;5112662;28;20046;-77
2022/03/31 07:32:22;;;;;;;;;;;8.10;99.90;;;;;;5127825;22;20043;-68
2022/03/31 07:34:49;;;;;;;44.55;23.83;;;8.10;99.90;;;;;;5102871;28;19919;-68
2022/03/31 07:37:17;;;;;;;46.88;23.85;;;8.10;99.90;;;;;;5101927;28;20031;-68
2022/03/31 07:39:45;;;;;;;;;;;8.10;99.90;;;;;;5108023;28;20043;-68
2022/03/31 07:42:14;;;;;;;47.50;24.60;;;8.10;99.90;;;;;;5093730;28;19920;-68
2022/03/31 07:44:41;;;;;;;50.50;25.23;;;8.10;99.90;;;;;;5089755;28;20040;-68
2022/03/31 07:47:09;;;;;;;50.60;24.95;;;8.20;99.90;;;;;;5083559;28;20036;-68
2022/03/31 07:49:36;;;;;;;;;;;8.20;99.90;;;;;;5091711;28;20040;-68
2022/03/31 07:52:04;;;;;;;53.50;25.23;;;8.20;99.90;;;;;;5091349;28;19924;-67
2022/03/31 07:54:31;;;;;;;48.25;25.08;;;8.20;99.90;;;;;;5091246;28;20075;-68
2022/03/31 07:56:58;;;;;;;54.70;27.80;;;8.10;99.90;;;;;;5083399;28;20085;-67
2022/03/31 07:59:32;;;;;;;51.72;26.20;;;8.10;99.90;;;;;;5091813;28;20040;-68
2022/03/31 08:02:00;;;;;;;57.40;27.48;;;8.10;99.90;;;;;;5090583;28;20044;-67
2022/03/31 08:04:27;;;;;;;49.40;25.30;;;8.10;99.90;;;;;;5083063;28;20427;-68
2022/03/31 08:06:55;;;;;;;49.90;25.58;;;8.10;99.90;;;;;;5091674;28;20052;-68
2022/03/31 08:09:22;;;;;;;54.63;25.92;;;8.20;99.90;;;;;;5091586;28;20071;-68
2022/03/31 08:11:50;;;;;;;56.88;26.42;;;8.10;99.90;;;;;;5082317;28;20062;-68
2022/03/31 08:14:19;;;;;;;53.10;26.23;;;8.10;99.90;;;;;;5091456;28;20043;-67
2022/03/31 08:16:48;;;;;;;53.33;27.13;;;8.10;99.90;;;;;;5091562;28;20051;-68
2022/03/31 08:19:16;;;;;;;54.88;27.17;;;8.10;99.90;;;;;;5090780;28;20047;-68
2022/03/31 08:21:45;;;;;;;56.67;28.15;;;8.10;99.90;;;;;;5082528;28;20028;-67
2022/03/31 08:24:13;;;;;;;57.92;28.38;;;8.10;99.90;;;;;;5091544;28;20036;-68
2022/03/31 08:26:42;;;;;;;53.13;26.20;;;8.10;99.90;;;;;;5091303;28;20476;-67
2022/03/31 08:29:10;;;;;;;58.72;27.27;;;8.20;99.90;;;;;;5083072;28;20407;-68
2022/03/31 08:31:39;;;;;;;56.10;27.75;;;8.20;99.90;;;;;;5090657;28;20044;-67
2022/03/31 08:34:07;;;;;;;60.97;28.23;;;8.20;99.90;;;;;;5090902;28;20044;-67
2022/03/31 08:36:35;;;;;;;58.20;27.17;;;8.30;99.90;;;;;;5082936;28;20089;-67
2022/03/31 08:39:06;;;;;;;56.05;28.00;;;8.30;99.90;;;;;;5091476;28;20047;-67
2022/03/31 08:41:33;;;;;;;61.17;27.55;;;8.40;99.90;;;;;;5090916;28;20044;-66
2022/03/31 08:44:00;;;;;;;53.30;26.77;;;8.40;99.90;;;;;;5089091;28;20446;-66
2022/03/31 08:46:33;;;;;;;52.10;26.80;;;8.50;99.90;;;;;;5084762;28;20040;-66
2022/03/31 08:49:01;;;;;;;55.88;28.05;;;8.50;99.90;;;;;;5091362;28;20409;-66
2022/03/31 08:51:28;;;;;;;53.80;27.85;;;8.50;99.90;;;;;;5090309;28;20442;-66
2022/03/31 08:53:55;;;;;;;;;;;8.50;99.90;;;;;;5065268;28;20060;-66
2022/03/31 08:56:22;;;;;;;59.10;28.05;;;8.50;99.90;;;;;;5091303;28;19927;-66
2022/03/31 08:59:07;;;;;;;68.20;30.77;;;8.50;99.90;;;;;;5091349;28;20040;-66
2022/03/31 09:01:37;;;;;;;;;;;8.50;99.90;;;;;;5092141;28;20067;-66
2022/03/31 09:04:04;;;;;;;56.78;27.83;;;8.60;99.90;;;;;;5086727;28;20561;-66
2022/03/31 09:06:42;;;;;;;60.63;28.40;;;8.60;99.90;;;;;;5094862;28;20076;-66
2022/03/31 09:09:10;;;;;;;58.83;29.08;;;8.70;99.90;;;;;;5094445;28;20063;-66
2022/03/31 09:11:37;;;;;;;59.75;29.98;;;8.80;99.90;;;;;;5067946;28;20449;-67
2022/03/31 09:14:31;;;;;;;58.28;28.60;;;8.90;99.90;;;;;;5094988;28;20455;-67
2022/03/31 09:17:13;;;;;;;57.88;28.05;;;9.00;99.90;;;;;;5094256;28;20044;-67
2022/03/31 09:19:41;;;;;;;57.22;28.10;;;9.10;99.90;;;;;;5086298;28;20036;-67
2022/03/31 09:22:09;;;;;;;54.28;27.05;;;9.10;99.90;;;;;;5094195;28;20036;-67
2022/03/31 09:24:36;;;;;;;54.75;28.25;;;9.20;99.90;;;;;;5094754;28;20097;-67
2022/03/31 09:27:04;;;;;;;55.40;27.70;;;9.20;99.90;;;;;;5091881;28;20032;-67
2022/03/31 09:29:33;;;;;;;54.75;28.77;;;9.30;99.90;;;;;;5088660;28;20105;-66
2022/03/31 09:32:13;;;;;;;57.95;27.10;;;9.40;99.90;;;;;;5093759;28;20496;-67
2022/03/31 09:34:45;;;;;;;52.65;27.83;;;9.50;99.90;;;;;;5094097;28;20040;-67
2022/03/31 09:37:13;;;;;;;54.75;27.25;;;9.60;99.90;;;;;;5085925;28;20389;-67
2022/03/31 09:39:42;;;;;;;58.45;28.25;;;9.70;99.90;;;;;;5094415;28;20408;-67
2022/03/31 09:42:14;;;;;;;49.67;25.90;;;9.70;99.90;;;;;;5093885;28;20071;-67
2022/03/31 09:44:42;;;;;;;54.15;26.75;;;9.80;99.90;;;;;;5093728;28;20093;-67
2022/03/31 09:47:10;;;;;;;57.22;27.52;;;9.90;99.90;;;;;;5085708;28;20044;-67
2022/03/31 09:49:38;;;;;;;47.40;25.58;;;10.00;99.90;;;;;;5094297;28;20047;-67
2022/03/31 09:52:07;;;;;;;50.42;25.58;;;10.00;99.90;;;;;;5091567;28;20496;-67
2022/03/31 09:54:35;;;;;;;47.53;25.88;;;10.10;99.90;;;;;;5082345;28;20040;-67
2022/03/31 09:57:07;;;;;;;51.85;26.65;;;10.00;99.90;;;;;;5092446;28;20135;-67
2022/03/31 09:59:39;;;;;;;50.55;27.17;;;10.00;99.90;;;;;;5094155;28;20048;-67
2022/03/31 10:02:07;;;;;;;56.53;27.63;;;10.10;99.90;;;;;;5092792;28;20048;-67
2022/03/31 10:04:35;;;;;;;49.47;25.77;;;10.20;99.90;;;;;;5085504;28;20040;-68
2022/03/31 10:07:03;;;;;;;48.47;24.75;;;10.30;99.90;;;;;;5093926;28;20074;-67
2022/03/31 10:09:32;;;;;;;49.78;25.52;;;10.40;99.90;;;;;;5093898;28;20036;-67
2022/03/31 10:12:16;;;;;;;46.67;25.15;;;10.30;99.90;;;;;;5084098;28;20045;-67
2022/03/31 10:14:54;;;;;;;44.83;23.60;;;10.20;99.90;;;;;;5093814;28;20039;-67
2022/03/31 10:17:28;;;;;;;47.97;24.33;;;10.10;99.90;;;;;;5093629;28;20097;-67
2022/03/31 10:20:15;;;;;;;45.95;23.88;;;10.10;99.90;;;;;;5093054;28;20059;-67
2022/03/31 10:25:42;;;;;;;50.80;24.02;;;10.00;99.90;;;;;;5093476;28;20116;-67
2022/03/31 10:28:10;;;;;;;44.38;23.83;;;10.00;99.90;;;;;;5093867;28;20495;-67
2022/03/31 10:30:38;;;;;;;46.58;24.60;;;10.00;99.90;;;;;;5087734;28;20044;-68
2022/03/31 10:33:08;;;;;;;44.78;22.83;;;9.90;99.90;;;;;;5084374;28;20044;-67
2022/03/31 10:35:37;;;;;;;47.15;22.40;;;10.00;99.90;;;;;;5093361;28;20077;-67
2022/03/31 10:38:23;;;;;;;39.47;21.45;;;10.00;99.90;;;;;;5092671;28;20051;-67
2022/03/31 10:40:52;;;;;;;43.33;22.60;;;10.00;99.90;;;;;;5084641;28;20028;-67
2022/03/31 10:43:24;;;;;;;47.17;22.30;;;10.00;99.90;;;;;;5093182;28;20044;-66
2022/03/31 10:45:54;;;;;;;44.63;23.15;;;10.00;99.90;;;;;;5092984;28;20048;-67
2022/03/31 10:48:28;;;;;;;41.97;21.95;;;10.00;99.90;;;;;;5087915;28;20049;-67
2022/03/31 10:51:05;;;;;;;45.08;22.42;;;9.90;99.90;;;;;;5090067;28;20047;-67
2022/03/31 10:53:35;;;;;;;41.22;20.85;;;9.80;99.90;;;;;;5092777;28;20048;-67
2022/03/31 10:56:14;;;;;;;41.25;21.00;;;9.80;99.90;;;;;;5092521;28;20369;-66
2022/03/31 10:58:42;;;;;;;39.08;21.80;;;9.80;99.90;;;;;;5084279;28;20040;-66
2022/03/31 11:01:11;;;;;;;39.00;20.10;;;9.80;99.90;;;;;;5092457;28;20043;-66
2022/03/31 11:03:38;;;;;;;40.70;22.10;;;9.80;99.90;;;;;;5092807;28;20105;-66
2022/03/31 11:06:10;;;;;;;42.70;22.95;;;9.70;99.90;;;;;;5089566;28;20044;-66
2022/03/31 11:08:46;;;;;;;39.05;20.38;;;9.60;99.90;;;;;;5087593;28;20068;-66
2022/03/31 11:11:28;;;;;;;49.03;21.77;;;9.60;99.90;;;;;;5092318;28;20055;-67
2022/03/31 11:13:57;;;;;;;39.15;20.52;;;9.50;99.90;;;;;;5092071;28;20492;-66
2022/03/31 11:16:38;;;;;;;48.53;22.55;;;9.60;99.90;;;;;;5083914;28;20032;-66
2022/03/31 11:19:07;;;;;;;39.88;21.23;;;9.60;99.90;;;;;;5092556;28;20040;-67
2022/03/31 11:21:35;;;;;;;44.05;22.58;;;9.60;99.90;;;;;;5091746;28;20040;-66
2022/03/31 11:24:05;;;;;;;42.92;22.55;;;9.60;99.90;;;;;;5087541;28;20385;-66
2022/03/31 11:26:44;;;;;;;38.67;21.25;;;9.50;99.90;;;;;;5083864;28;20048;-66
2022/03/31 11:29:13;;;;;;;40.17;20.38;;;9.50;99.90;;;;;;5092550;28;20059;-67
2022/03/31 11:31:54;;;;;;;41.42;21.45;;;9.40;99.90;;;;;;5091374;28;20040;-66
2022/03/31 11:34:25;;;;;;;39.72;21.20;;;9.40;99.90;;;;;;5083575;28;20059;-66
2022/03/31 11:36:54;;;;;;;40.80;20.83;;;9.40;99.90;;;;;;5092243;28;20055;-66
2022/03/31 11:39:28;;;;;;;35.15;18.75;;;9.40;99.90;;;;;;5092101;28;20067;-67
2022/03/31 11:41:59;;;;;;;38.55;19.70;;;9.40;99.90;;;;;;5090993;28;20094;-67
2022/03/31 11:44:32;;;;;;;37.97;19.25;;;9.40;99.90;;;;;;5083400;28;20044;-66
2022/03/31 11:46:59;;;;;;;33.90;18.40;;;9.50;99.90;;;;;;5092096;28;20058;-66
2022/03/31 11:49:28;;;;;;;33.63;17.23;;;9.50;99.90;;;;;;5092093;28;20415;-66
2022/03/31 11:52:00;;;;;;;34.22;17.02;;;9.60;99.90;;;;;;5089812;28;20059;-66
2022/03/31 11:54:30;;;;;;;35.75;18.45;;;9.60;99.90;;;;;;5085239;28;20181;-66
2022/03/31 11:57:06;;;;;;;33.97;17.25;;;9.50;99.90;;;;;;5091975;28;20044;-66
2022/03/31 11:59:34;;;;;;;29.67;16.40;;;9.60;99.90;;;;;;5085800;28;20040;-66
2022/03/31 12:02:11;;;;;;;30.60;16.13;;;9.60;99.90;;;;;;5081140;28;20041;-66
2022/03/31 12:04:38;;;;;;;29.48;15.95;;;9.70;99.90;;;;;;5091833;28;20079;-67
2022/03/31 12:07:06;;;;;;;30.40;16.08;;;9.80;99.90;;;;;;5091497;28;20105;-66
2022/03/31 12:09:33;;;;;;;28.02;14.45;;;9.80;99.90;;;;;;5085073;28;20066;-66
2022/03/31 12:12:00;;;;;;;27.42;15.63;;;9.70;99.90;;;;;;5089382;28;20484;-66
2022/03/31 12:14:30;;;;;;;29.65;14.77;;;9.70;99.90;;;;;;5091925;28;20071;-67
2022/03/31 12:16:59;;;;;;;28.27;14.57;;;9.60;99.90;;;;;;5089667;28;20519;-66
2022/03/31 12:19:38;;;;;;;29.02;14.65;;;9.60;99.90;;;;;;5085232;28;20114;-66
2022/03/31 12:22:06;;;;;;;28.35;13.73;;;9.60;99.90;;;;;;5091304;28;20048;-66
2022/03/31 12:24:44;;;;;;;27.45;13.93;;;9.60;99.90;;;;;;5082663;28;20041;-66
2022/03/31 12:27:15;;;;;;;21.88;12.43;;;9.60;99.90;;;;;;5091181;28;20055;-66
2022/03/31 12:29:43;;;;;;;26.38;12.90;;;9.70;99.90;;;;;;5091538;28;20052;-66
2022/03/31 12:32:11;;;;;;;18.83;10.70;;;9.70;99.90;;;;;;5087666;28;20055;-67
2022/03/31 12:34:53;;;;;;;21.85;9.20;;;9.70;99.90;;;;;;5082922;28;20384;-66
2022/03/31 12:37:37;;;;;;;17.90;9.60;;;9.60;99.90;;;;;;5095536;28;20047;-66
2022/03/31 12:40:10;;;;;;;18.17;9.07;;;9.50;99.90;;;;;;5093506;28;20046;-66
2022/03/31 12:42:49;;;;;;;16.63;9.35;;;9.50;99.90;;;;;;5083124;28;20037;-66
2022/03/31 12:45:17;;;;;;;21.77;9.40;;;9.40;99.90;;;;;;5075369;28;20550;-66
2022/03/31 12:47:44;;;;;;;;;;;9.40;99.90;;;;;;5075662;28;20106;-66
2022/03/31 12:50:17;;;;;;;18.53;9.33;;;9.30;99.90;;;;;;5085585;28;19927;-66
2022/03/31 12:52:53;;;;;;;16.20;8.25;;;9.20;99.90;;;;;;5091124;28;20043;-66
2022/03/31 12:55:34;;;;;;;20.40;8.35;;;9.10;99.90;;;;;;5095239;28;20045;-66